sensor_id;sensor_type;location;lat;lon;timestamp;temperature;humidity
6988;DHT22;3534;49.960;8.018;2023-04-05T00:00:54;7.50;99.90
6988;DHT22;3534;49.960;8.018;2023-04-05T00:03:21;7.50;99.90
6988;DHT22;3534;49.960;8.018;2023-04-05T00:05:48;7.50;99.90
6988;DHT22;3534;49.960;8.018;2023-04-05T00:08:15;7.50;99.90
6988;DHT22;3534;49.960;8.018;2023-04-05T00:10:49;7.40;99.90
6988;DHT22;3534;49.960;8.018;2023-04-05T00:13:16;7.40;99.90
6988;DHT22;3534;49.960;8.018;2023-04-05T00:15:43;7.40;99.90
6988;DHT22;3534;49.960;8.018;2023-04-05T00:18:10;7.40;99.90
6988;DHT22;3534;49.960;8.018;2023-04-05T00:20:46;7.40;99.90
6988;DHT22;3534;49.960;8.018;2023-04-05T00:23:13;7.30;99.90
6988;DHT22;3534;49.960;8.018;2023-04-05T00:25:41;7.30;99.90
6988;DHT22;3534;49.960;8.018;2023-04-05T00:28:09;7.20;99.90
6988;DHT22;3534;49.960;8.018;2023-04-05T00:30:36;7.20;99.90
6988;DHT22;3534;49.960;8.018;2023-04-05T00:33:03;7.10;99.90
6988;DHT22;3534;49.960;8.018;2023-04-05T00:35:30;7.10;99.90
6988;DHT22;3534;49.960;8.018;2023-04-05T00:37:56;7.00;99.90
6988;DHT22;3534;49.960;8.018;2023-04-05T00:40:23;7.00;99.90
6988;DHT22;3534;49.960;8.018;2023-04-05T00:42:50;7.00;99.90
6988;DHT22;3534;49.960;8.018;2023-04-05T00:45:19;7.00;99.90
6988;DHT22;3534;49.960;8.018;2023-04-05T00:47:45;7.00;99.90
6988;DHT22;3534;49.960;8.018;2023-04-05T00:50:12;7.00;99.90
6988;DHT22;3534;49.960;8.018;2023-04-05T00:52:40;7.00;99.90
6988;DHT22;3534;49.960;8.018;2023-04-05T00:55:09;6.90;99.90
6988;DHT22;3534;49.960;8.018;2023-04-05T00:57:36;6.90;99.90
6988;DHT22;3534;49.960;8.018;2023-04-05T01:00:05;6.90;99.90
6988;DHT22;3534;49.960;8.018;2023-04-05T01:02:40;6.90;99.90
6988;DHT22;3534;49.960;8.018;2023-04-05T01:05:17;6.90;99.90
6988;DHT22;3534;49.960;8.018;2023-04-05T01:07:52;6.80;99.90
6988;DHT22;3534;49.960;8.018;2023-04-05T01:10:21;6.80;99.90
6988;DHT22;3534;49.960;8.018;2023-04-05T01:12:51;6.80;99.90
6988;DHT22;3534;49.960;8.018;2023-04-05T01:15:18;6.90;99.90
6988;DHT22;3534;49.960;8.018;2023-04-05T01:17:46;6.90;99.90
6988;DHT22;3534;49.960;8.018;2023-04-05T01:20:13;6.90;99.90
6988;DHT22;3534;49.960;8.018;2023-04-05T01:23:11;6.90;99.90
6988;DHT22;3534;49.960;8.018;2023-04-05T01:29:26;6.90;99.90
6988;DHT22;3534;49.960;8.018;2023-04-05T01:31:59;6.90;99.90
6988;DHT22;3534;49.960;8.018;2023-04-05T01:34:35;6.80;99.90
6988;DHT22;3534;49.960;8.018;2023-04-05T01:37:07;6.70;99.90
6988;DHT22;3534;49.960;8.018;2023-04-05T01:39:37;6.70;99.90
6988;DHT22;3534;49.960;8.018;2023-04-05T01:42:04;6.70;99.90
6988;DHT22;3534;49.960;8.018;2023-04-05T01:44:32;6.70;99.90
6988;DHT22;3534;49.960;8.018;2023-04-05T01:46:59;6.60;99.90
6988;DHT22;3534;49.960;8.018;2023-04-05T01:49:26;6.70;99.90
6988;DHT22;3534;49.960;8.018;2023-04-05T01:51:52;6.60;99.90
6988;DHT22;3534;49.960;8.018;2023-04-05T01:54:19;6.60;99.90
6988;DHT22;3534;49.960;8.018;2023-04-05T01:56:46;6.60;99.90
6988;DHT22;3534;49.960;8.018;2023-04-05T01:59:12;6.60;99.90
6988;DHT22;3534;49.960;8.018;2023-04-05T02:01:40;6.60;99.90
6988;DHT22;3534;49.960;8.018;2023-04-05T02:04:07;6.60;99.90
6988;DHT22;3534;49.960;8.018;2023-04-05T02:06:34;6.50;99.90
6988;DHT22;3534;49.960;8.018;2023-04-05T02:09:00;6.50;99.90
6988;DHT22;3534;49.960;8.018;2023-04-05T02:11:27;6.50;99.90
6988;DHT22;3534;49.960;8.018;2023-04-05T02:13:54;6.50;99.90
6988;DHT22;3534;49.960;8.018;2023-04-05T02:16:20;6.40;99.90
6988;DHT22;3534;49.960;8.018;2023-04-05T02:18:49;6.40;99.90
6988;DHT22;3534;49.960;8.018;2023-04-05T02:21:15;6.40;99.90
6988;DHT22;3534;49.960;8.018;2023-04-05T02:23:42;6.30;99.90
6988;DHT22;3534;49.960;8.018;2023-04-05T02:26:09;6.30;99.90
6988;DHT22;3534;49.960;8.018;2023-04-05T02:28:36;6.20;99.90
6988;DHT22;3534;49.960;8.018;2023-04-05T02:31:07;6.10;99.90
6988;DHT22;3534;49.960;8.018;2023-04-05T02:33:35;6.10;99.90
6988;DHT22;3534;49.960;8.018;2023-04-05T02:36:05;6.10;99.90
6988;DHT22;3534;49.960;8.018;2023-04-05T02:38:32;6.00;99.90
6988;DHT22;3534;49.960;8.018;2023-04-05T02:40:59;6.00;99.90
6988;DHT22;3534;49.960;8.018;2023-04-05T02:43:26;5.90;99.90
6988;DHT22;3534;49.960;8.018;2023-04-05T02:45:53;5.90;99.90
6988;DHT22;3534;49.960;8.018;2023-04-05T02:48:20;5.80;99.90
6988;DHT22;3534;49.960;8.018;2023-04-05T02:50:47;5.80;99.90
6988;DHT22;3534;49.960;8.018;2023-04-05T02:53:16;5.70;99.90
6988;DHT22;3534;49.960;8.018;2023-04-05T02:55:43;5.80;99.90
6988;DHT22;3534;49.960;8.018;2023-04-05T02:58:17;5.70;99.90
6988;DHT22;3534;49.960;8.018;2023-04-05T03:00:44;5.70;99.90
6988;DHT22;3534;49.960;8.018;2023-04-05T03:03:15;5.70;99.90
6988;DHT22;3534;49.960;8.018;2023-04-05T03:05:42;5.60;99.90
6988;DHT22;3534;49.960;8.018;2023-04-05T03:08:09;5.60;99.90
6988;DHT22;3534;49.960;8.018;2023-04-05T03:10:44;5.60;99.90
6988;DHT22;3534;49.960;8.018;2023-04-05T03:13:11;5.50;99.90
6988;DHT22;3534;49.960;8.018;2023-04-05T03:15:38;5.50;99.90
6988;DHT22;3534;49.960;8.018;2023-04-05T03:18:05;5.50;99.90
6988;DHT22;3534;49.960;8.018;2023-04-05T03:20:32;5.50;99.90
6988;DHT22;3534;49.960;8.018;2023-04-05T03:23:05;5.50;99.90
6988;DHT22;3534;49.960;8.018;2023-04-05T03:25:32;5.50;99.90
6988;DHT22;3534;49.960;8.018;2023-04-05T03:28:01;5.40;99.90
6988;DHT22;3534;49.960;8.018;2023-04-05T03:30:30;5.40;99.90
6988;DHT22;3534;49.960;8.018;2023-04-05T03:32:56;5.40;99.90
6988;DHT22;3534;49.960;8.018;2023-04-05T03:35:25;5.30;99.90
6988;DHT22;3534;49.960;8.018;2023-04-05T03:37:52;5.30;99.90
6988;DHT22;3534;49.960;8.018;2023-04-05T03:40:19;5.20;99.90
6988;DHT22;3534;49.960;8.018;2023-04-05T03:42:45;5.20;99.90
6988;DHT22;3534;49.960;8.018;2023-04-05T03:45:13;5.20;99.90
6988;DHT22;3534;49.960;8.018;2023-04-05T03:47:40;5.10;99.90
6988;DHT22;3534;49.960;8.018;2023-04-05T03:50:08;5.10;99.90
6988;DHT22;3534;49.960;8.018;2023-04-05T03:52:35;5.10;99.90
6988;DHT22;3534;49.960;8.018;2023-04-05T03:55:01;5.00;99.90
6988;DHT22;3534;49.960;8.018;2023-04-05T03:57:29;5.00;99.90
6988;DHT22;3534;49.960;8.018;2023-04-05T03:59:55;5.00;99.90
6988;DHT22;3534;49.960;8.018;2023-04-05T04:02:23;4.90;99.90
6988;DHT22;3534;49.960;8.018;2023-04-05T04:04:50;4.90;99.90
6988;DHT22;3534;49.960;8.018;2023-04-05T04:07:17;4.90;99.90
6988;DHT22;3534;49.960;8.018;2023-04-05T04:09:44;4.90;99.90
6988;DHT22;3534;49.960;8.018;2023-04-05T04:12:11;4.80;99.90
6988;DHT22;3534;49.960;8.018;2023-04-05T04:14:37;4.80;99.90
6988;DHT22;3534;49.960;8.018;2023-04-05T04:17:04;4.80;99.90
6988;DHT22;3534;49.960;8.018;2023-04-05T04:19:32;4.70;99.90
6988;DHT22;3534;49.960;8.018;2023-04-05T04:21:59;4.70;99.90
6988;DHT22;3534;49.960;8.018;2023-04-05T04:24:26;4.70;99.90
6988;DHT22;3534;49.960;8.018;2023-04-05T04:26:57;4.70;99.90
6988;DHT22;3534;49.960;8.018;2023-04-05T04:29:23;4.70;99.90
6988;DHT22;3534;49.960;8.018;2023-04-05T04:31:55;4.70;99.90
6988;DHT22;3534;49.960;8.018;2023-04-05T04:34:22;4.60;99.90
6988;DHT22;3534;49.960;8.018;2023-04-05T04:36:51;4.60;99.90
6988;DHT22;3534;49.960;8.018;2023-04-05T04:39:26;4.60;99.90
6988;DHT22;3534;49.960;8.018;2023-04-05T04:41:56;4.50;99.90
6988;DHT22;3534;49.960;8.018;2023-04-05T04:44:23;4.50;99.90
6988;DHT22;3534;49.960;8.018;2023-04-05T04:46:55;4.40;99.90
6988;DHT22;3534;49.960;8.018;2023-04-05T04:49:22;4.40;99.90
6988;DHT22;3534;49.960;8.018;2023-04-05T04:51:50;4.30;99.90
6988;DHT22;3534;49.960;8.018;2023-04-05T04:54:17;4.30;99.90
6988;DHT22;3534;49.960;8.018;2023-04-05T04:56:45;4.30;99.90
6988;DHT22;3534;49.960;8.018;2023-04-05T04:59:12;4.30;99.90
6988;DHT22;3534;49.960;8.018;2023-04-05T05:01:42;4.30;99.90
6988;DHT22;3534;49.960;8.018;2023-04-05T05:04:10;4.30;99.90
6988;DHT22;3534;49.960;8.018;2023-04-05T05:06:36;4.30;99.90
6988;DHT22;3534;49.960;8.018;2023-04-05T05:09:04;4.30;99.90
6988;DHT22;3534;49.960;8.018;2023-04-05T05:11:31;4.30;99.90
6988;DHT22;3534;49.960;8.018;2023-04-05T05:13:58;4.30;99.90
6988;DHT22;3534;49.960;8.018;2023-04-05T05:16:25;4.30;99.90
6988;DHT22;3534;49.960;8.018;2023-04-05T05:18:52;4.30;99.90
6988;DHT22;3534;49.960;8.018;2023-04-05T05:21:19;4.30;99.90
6988;DHT22;3534;49.960;8.018;2023-04-05T05:23:46;4.30;99.90
6988;DHT22;3534;49.960;8.018;2023-04-05T05:26:14;4.40;99.90
6988;DHT22;3534;49.960;8.018;2023-04-05T05:28:41;4.40;99.90
6988;DHT22;3534;49.960;8.018;2023-04-05T05:31:08;4.40;99.90
6988;DHT22;3534;49.960;8.018;2023-04-05T05:33:35;4.40;99.90
6988;DHT22;3534;49.960;8.018;2023-04-05T05:36:01;4.30;99.90
6988;DHT22;3534;49.960;8.018;2023-04-05T05:38:28;4.30;99.90
6988;DHT22;3534;49.960;8.018;2023-04-05T05:40:56;4.20;99.90
6988;DHT22;3534;49.960;8.018;2023-04-05T05:43:24;4.20;99.90
6988;DHT22;3534;49.960;8.018;2023-04-05T05:45:51;4.30;99.90
6988;DHT22;3534;49.960;8.018;2023-04-05T05:48:18;4.30;99.90
6988;DHT22;3534;49.960;8.018;2023-04-05T05:50:45;4.30;99.90
6988;DHT22;3534;49.960;8.018;2023-04-05T05:53:13;4.20;99.90
6988;DHT22;3534;49.960;8.018;2023-04-05T05:55:40;4.30;99.90
6988;DHT22;3534;49.960;8.018;2023-04-05T05:58:07;4.30;99.90
6988;DHT22;3534;49.960;8.018;2023-04-05T06:00:35;4.30;99.90
6988;DHT22;3534;49.960;8.018;2023-04-05T06:03:03;4.20;99.90
6988;DHT22;3534;49.960;8.018;2023-04-05T06:05:30;4.20;99.90
6988;DHT22;3534;49.960;8.018;2023-04-05T06:07:57;4.20;99.90
6988;DHT22;3534;49.960;8.018;2023-04-05T06:10:24;4.20;99.90
6988;DHT22;3534;49.960;8.018;2023-04-05T06:12:51;4.20;99.90
6988;DHT22;3534;49.960;8.018;2023-04-05T06:15:18;4.20;99.90
6988;DHT22;3534;49.960;8.018;2023-04-05T06:17:46;4.30;99.90
6988;DHT22;3534;49.960;8.018;2023-04-05T06:20:13;4.30;99.90
6988;DHT22;3534;49.960;8.018;2023-04-05T06:22:40;4.40;99.90
6988;DHT22;3534;49.960;8.018;2023-04-05T06:25:08;4.50;99.90
6988;DHT22;3534;49.960;8.018;2023-04-05T06:27:36;4.50;99.90
6988;DHT22;3534;49.960;8.018;2023-04-05T06:30:04;4.60;99.90
6988;DHT22;3534;49.960;8.018;2023-04-05T06:32:31;4.60;99.90
6988;DHT22;3534;49.960;8.018;2023-04-05T06:34:59;4.70;99.90
6988;DHT22;3534;49.960;8.018;2023-04-05T06:37:28;4.70;99.90
6988;DHT22;3534;49.960;8.018;2023-04-05T06:39:54;4.80;99.90
6988;DHT22;3534;49.960;8.018;2023-04-05T06:42:21;4.90;99.90
6988;DHT22;3534;49.960;8.018;2023-04-05T06:44:48;4.90;99.90
6988;DHT22;3534;49.960;8.018;2023-04-05T06:47:14;4.90;99.90
6988;DHT22;3534;49.960;8.018;2023-04-05T06:49:41;4.90;99.90
6988;DHT22;3534;49.960;8.018;2023-04-05T06:52:09;4.90;99.90
6988;DHT22;3534;49.960;8.018;2023-04-05T06:54:37;5.00;99.90
6988;DHT22;3534;49.960;8.018;2023-04-05T06:57:04;5.00;99.90
6988;DHT22;3534;49.960;8.018;2023-04-05T06:59:31;4.90;99.90
6988;DHT22;3534;49.960;8.018;2023-04-05T07:01:57;4.80;99.90
6988;DHT22;3534;49.960;8.018;2023-04-05T07:04:24;4.70;99.90
6988;DHT22;3534;49.960;8.018;2023-04-05T07:06:53;4.60;99.90
6988;DHT22;3534;49.960;8.018;2023-04-05T07:09:22;4.50;99.90
6988;DHT22;3534;49.960;8.018;2023-04-05T07:11:49;4.60;99.90
6988;DHT22;3534;49.960;8.018;2023-04-05T07:14:16;4.60;99.90
6988;DHT22;3534;49.960;8.018;2023-04-05T07:16:43;4.50;99.90
6988;DHT22;3534;49.960;8.018;2023-04-05T07:19:10;4.50;99.90
6988;DHT22;3534;49.960;8.018;2023-04-05T07:21:37;4.60;99.90
6988;DHT22;3534;49.960;8.018;2023-04-05T07:24:04;4.70;99.90
6988;DHT22;3534;49.960;8.018;2023-04-05T07:26:32;4.90;99.90
6988;DHT22;3534;49.960;8.018;2023-04-05T07:29:00;5.10;99.90
6988;DHT22;3534;49.960;8.018;2023-04-05T07:31:27;5.20;99.90
6988;DHT22;3534;49.960;8.018;2023-04-05T07:33:54;5.40;99.90
6988;DHT22;3534;49.960;8.018;2023-04-05T07:36:22;5.50;99.90
6988;DHT22;3534;49.960;8.018;2023-04-05T07:38:49;5.60;99.90
6988;DHT22;3534;49.960;8.018;2023-04-05T07:41:16;5.70;99.90
6988;DHT22;3534;49.960;8.018;2023-04-05T07:43:45;5.80;99.90
6988;DHT22;3534;49.960;8.018;2023-04-05T07:46:12;5.90;99.90
6988;DHT22;3534;49.960;8.018;2023-04-05T07:48:39;6.00;99.90
6988;DHT22;3534;49.960;8.018;2023-04-05T07:51:07;6.10;99.90
6988;DHT22;3534;49.960;8.018;2023-04-05T07:53:35;6.20;99.90
6988;DHT22;3534;49.960;8.018;2023-04-05T07:56:03;6.30;99.90
6988;DHT22;3534;49.960;8.018;2023-04-05T07:58:30;6.50;99.90
6988;DHT22;3534;49.960;8.018;2023-04-05T08:01:00;6.60;99.90
6988;DHT22;3534;49.960;8.018;2023-04-05T08:03:27;6.70;99.90
6988;DHT22;3534;49.960;8.018;2023-04-05T08:05:54;6.70;99.90
6988;DHT22;3534;49.960;8.018;2023-04-05T08:08:22;6.80;99.90
6988;DHT22;3534;49.960;8.018;2023-04-05T08:10:48;6.90;99.90
6988;DHT22;3534;49.960;8.018;2023-04-05T08:13:15;7.00;99.90
6988;DHT22;3534;49.960;8.018;2023-04-05T08:15:42;7.00;99.90
6988;DHT22;3534;49.960;8.018;2023-04-05T08:18:10;7.10;99.90
6988;DHT22;3534;49.960;8.018;2023-04-05T08:20:37;7.20;99.90
6988;DHT22;3534;49.960;8.018;2023-04-05T08:23:05;7.20;99.90
6988;DHT22;3534;49.960;8.018;2023-04-05T08:25:32;7.20;99.90
6988;DHT22;3534;49.960;8.018;2023-04-05T08:27:59;7.30;99.90
6988;DHT22;3534;49.960;8.018;2023-04-05T08:30:25;7.30;99.90
6988;DHT22;3534;49.960;8.018;2023-04-05T08:32:52;7.40;99.90
6988;DHT22;3534;49.960;8.018;2023-04-05T08:35:20;7.40;99.90
6988;DHT22;3534;49.960;8.018;2023-04-05T08:37:47;7.40;99.90
6988;DHT22;3534;49.960;8.018;2023-04-05T08:40:14;7.40;99.90
6988;DHT22;3534;49.960;8.018;2023-04-05T08:42:42;7.50;99.90
6988;DHT22;3534;49.960;8.018;2023-04-05T08:45:13;7.60;99.90
6988;DHT22;3534;49.960;8.018;2023-04-05T08:47:41;7.60;99.90
6988;DHT22;3534;49.960;8.018;2023-04-05T08:50:09;7.70;99.90
6988;DHT22;3534;49.960;8.018;2023-04-05T08:52:40;7.70;99.90
6988;DHT22;3534;49.960;8.018;2023-04-05T08:55:08;7.80;99.90
6988;DHT22;3534;49.960;8.018;2023-04-05T08:57:36;7.80;99.90
6988;DHT22;3534;49.960;8.018;2023-04-05T09:00:07;7.90;99.90
6988;DHT22;3534;49.960;8.018;2023-04-05T09:02:35;8.00;99.90
6988;DHT22;3534;49.960;8.018;2023-04-05T09:05:06;8.00;99.90
6988;DHT22;3534;49.960;8.018;2023-04-05T09:07:34;8.10;99.90
6988;DHT22;3534;49.960;8.018;2023-04-05T09:10:05;8.20;99.90
6988;DHT22;3534;49.960;8.018;2023-04-05T09:12:34;8.20;99.90
6988;DHT22;3534;49.960;8.018;2023-04-05T09:15:01;8.30;99.90
6988;DHT22;3534;49.960;8.018;2023-04-05T09:17:28;8.40;99.90
6988;DHT22;3534;49.960;8.018;2023-04-05T09:19:56;8.40;99.90
6988;DHT22;3534;49.960;8.018;2023-04-05T09:22:23;8.50;99.90
6988;DHT22;3534;49.960;8.018;2023-04-05T09:24:50;8.60;99.90
6988;DHT22;3534;49.960;8.018;2023-04-05T09:27:18;8.60;99.90
6988;DHT22;3534;49.960;8.018;2023-04-05T09:29:47;8.70;99.90
6988;DHT22;3534;49.960;8.018;2023-04-05T09:32:15;8.70;99.90
6988;DHT22;3534;49.960;8.018;2023-04-05T09:34:42;8.70;99.90
6988;DHT22;3534;49.960;8.018;2023-04-05T09:37:13;8.80;99.90
6988;DHT22;3534;49.960;8.018;2023-04-05T09:39:40;8.80;99.90
6988;DHT22;3534;49.960;8.018;2023-04-05T09:42:08;8.80;99.90
6988;DHT22;3534;49.960;8.018;2023-04-05T09:44:51;8.90;99.90
6988;DHT22;3534;49.960;8.018;2023-04-05T09:47:19;8.90;99.90
6988;DHT22;3534;49.960;8.018;2023-04-05T09:49:46;8.90;99.90
6988;DHT22;3534;49.960;8.018;2023-04-05T09:52:17;9.00;99.90
6988;DHT22;3534;49.960;8.018;2023-04-05T09:54:44;9.10;99.90
6988;DHT22;3534;49.960;8.018;2023-04-05T09:57:11;9.10;99.90
6988;DHT22;3534;49.960;8.018;2023-04-05T09:59:38;9.20;99.90
6988;DHT22;3534;49.960;8.018;2023-04-05T10:02:07;9.20;99.90
6988;DHT22;3534;49.960;8.018;2023-04-05T10:04:39;9.30;99.90
6988;DHT22;3534;49.960;8.018;2023-04-05T10:07:07;9.30;99.50
6988;DHT22;3534;49.960;8.018;2023-04-05T10:09:34;9.40;99.90
6988;DHT22;3534;49.960;8.018;2023-04-05T10:12:02;9.40;99.70
6988;DHT22;3534;49.960;8.018;2023-04-05T10:14:29;9.40;99.70
6988;DHT22;3534;49.960;8.018;2023-04-05T10:17:07;9.50;99.90
6988;DHT22;3534;49.960;8.018;2023-04-05T10:19:44;9.60;99.90
6988;DHT22;3534;49.960;8.018;2023-04-05T10:22:22;9.60;99.90
6988;DHT22;3534;49.960;8.018;2023-04-05T10:24:51;9.60;99.90
6988;DHT22;3534;49.960;8.018;2023-04-05T10:27:22;9.80;99.90
6988;DHT22;3534;49.960;8.018;2023-04-05T10:30:02;9.80;99.90
6988;DHT22;3534;49.960;8.018;2023-04-05T10:32:42;9.80;99.90
6988;DHT22;3534;49.960;8.018;2023-04-05T10:35:15;9.90;99.90
6988;DHT22;3534;49.960;8.018;2023-04-05T10:37:52;9.90;99.30
6988;DHT22;3534;49.960;8.018;2023-04-05T10:40:20;9.90;98.10
6988;DHT22;3534;49.960;8.018;2023-04-05T10:42:47;9.90;97.80
6988;DHT22;3534;49.960;8.018;2023-04-05T10:45:17;9.90;97.60
6988;DHT22;3534;49.960;8.018;2023-04-05T10:47:47;9.90;97.60
6988;DHT22;3534;49.960;8.018;2023-04-05T10:50:19;9.80;96.50
6988;DHT22;3534;49.960;8.018;2023-04-05T10:52:47;9.80;96.20
6988;DHT22;3534;49.960;8.018;2023-04-05T10:55:15;9.90;96.60
6988;DHT22;3534;49.960;8.018;2023-04-05T10:57:42;9.90;96.50
6988;DHT22;3534;49.960;8.018;2023-04-05T11:00:12;9.90;96.20
6988;DHT22;3534;49.960;8.018;2023-04-05T11:02:40;10.00;95.90
6988;DHT22;3534;49.960;8.018;2023-04-05T11:05:28;10.00;95.50
6988;DHT22;3534;49.960;8.018;2023-04-05T11:07:58;10.10;99.90
6988;DHT22;3534;49.960;8.018;2023-04-05T11:10:25;10.20;97.10
6988;DHT22;3534;49.960;8.018;2023-04-05T11:13:07;10.20;95.70
6988;DHT22;3534;49.960;8.018;2023-04-05T11:15:35;10.30;95.20
6988;DHT22;3534;49.960;8.018;2023-04-05T11:18:04;10.30;94.90
6988;DHT22;3534;49.960;8.018;2023-04-05T11:20:46;10.20;95.50
6988;DHT22;3534;49.960;8.018;2023-04-05T11:23:19;10.20;99.90
6988;DHT22;3534;49.960;8.018;2023-04-05T11:25:49;10.30;99.90
6988;DHT22;3534;49.960;8.018;2023-04-05T11:28:23;10.40;99.90
6988;DHT22;3534;49.960;8.018;2023-04-05T11:30:51;10.50;98.90
6988;DHT22;3534;49.960;8.018;2023-04-05T11:33:54;10.50;96.00
6988;DHT22;3534;49.960;8.018;2023-04-05T11:36:30;10.50;96.50
6988;DHT22;3534;49.960;8.018;2023-04-05T11:39:23;10.60;97.40
6988;DHT22;3534;49.960;8.018;2023-04-05T11:42:00;10.70;99.90
6988;DHT22;3534;49.960;8.018;2023-04-05T11:44:28;10.90;99.90
6988;DHT22;3534;49.960;8.018;2023-04-05T11:46:58;11.10;98.60
6988;DHT22;3534;49.960;8.018;2023-04-05T11:49:25;11.20;95.80
6988;DHT22;3534;49.960;8.018;2023-04-05T11:51:53;11.50;99.90
6988;DHT22;3534;49.960;8.018;2023-04-05T11:54:33;11.60;96.20
6988;DHT22;3534;49.960;8.018;2023-04-05T11:57:00;11.90;99.90
6988;DHT22;3534;49.960;8.018;2023-04-05T11:59:29;12.10;99.50
6988;DHT22;3534;49.960;8.018;2023-04-05T12:01:58;12.30;99.90
6988;DHT22;3534;49.960;8.018;2023-04-05T12:04:24;12.50;98.20
6988;DHT22;3534;49.960;8.018;2023-04-05T12:07:11;12.70;99.90
6988;DHT22;3534;49.960;8.018;2023-04-05T12:09:58;12.90;99.90
6988;DHT22;3534;49.960;8.018;2023-04-05T12:12:25;13.20;97.10
6988;DHT22;3534;49.960;8.018;2023-04-05T12:14:57;13.60;95.20
6988;DHT22;3534;49.960;8.018;2023-04-05T12:17:40;14.00;90.80
6988;DHT22;3534;49.960;8.018;2023-04-05T12:20:08;14.50;86.80
6988;DHT22;3534;49.960;8.018;2023-04-05T12:22:37;14.80;85.10
6988;DHT22;3534;49.960;8.018;2023-04-05T12:25:04;15.30;82.50
6988;DHT22;3534;49.960;8.018;2023-04-05T12:27:31;15.70;79.20
6988;DHT22;3534;49.960;8.018;2023-04-05T12:30:09;15.90;76.30
6988;DHT22;3534;49.960;8.018;2023-04-05T12:32:43;16.40;72.90
6988;DHT22;3534;49.960;8.018;2023-04-05T12:35:11;16.70;69.70
6988;DHT22;3534;49.960;8.018;2023-04-05T12:37:40;16.90;67.80
6988;DHT22;3534;49.960;8.018;2023-04-05T12:40:07;17.20;67.20
6988;DHT22;3534;49.960;8.018;2023-04-05T12:42:35;17.00;63.70
6988;DHT22;3534;49.960;8.018;2023-04-05T12:45:03;17.10;63.70
6988;DHT22;3534;49.960;8.018;2023-04-05T12:47:32;17.30;67.50
6988;DHT22;3534;49.960;8.018;2023-04-05T12:50:09;17.70;62.50
6988;DHT22;3534;49.960;8.018;2023-04-05T12:52:36;18.20;61.70
6988;DHT22;3534;49.960;8.018;2023-04-05T12:55:13;18.30;61.60
6988;DHT22;3534;49.960;8.018;2023-04-05T12:57:40;18.80;58.90
6988;DHT22;3534;49.960;8.018;2023-04-05T13:00:08;19.10;57.00
6988;DHT22;3534;49.960;8.018;2023-04-05T13:02:35;19.30;57.20
6988;DHT22;3534;49.960;8.018;2023-04-05T13:05:02;19.60;55.90
6988;DHT22;3534;49.960;8.018;2023-04-05T13:07:29;19.80;54.30
6988;DHT22;3534;49.960;8.018;2023-04-05T13:09:56;19.90;53.80
6988;DHT22;3534;49.960;8.018;2023-04-05T13:12:24;19.50;53.80
6988;DHT22;3534;49.960;8.018;2023-04-05T13:14:50;19.30;52.60
6988;DHT22;3534;49.960;8.018;2023-04-05T13:17:17;19.00;56.40
6988;DHT22;3534;49.960;8.018;2023-04-05T13:19:44;19.10;52.80
6988;DHT22;3534;49.960;8.018;2023-04-05T13:22:10;19.50;55.80
6988;DHT22;3534;49.960;8.018;2023-04-05T13:24:37;19.80;51.10
6988;DHT22;3534;49.960;8.018;2023-04-05T13:27:04;20.10;51.90
6988;DHT22;3534;49.960;8.018;2023-04-05T13:29:32;20.60;50.40
6988;DHT22;3534;49.960;8.018;2023-04-05T13:31:58;20.90;50.20
6988;DHT22;3534;49.960;8.018;2023-04-05T13:34:25;21.20;49.70
6988;DHT22;3534;49.960;8.018;2023-04-05T13:36:52;21.40;48.80
6988;DHT22;3534;49.960;8.018;2023-04-05T13:39:18;21.60;48.80
6988;DHT22;3534;49.960;8.018;2023-04-05T13:41:46;21.70;48.00
6988;DHT22;3534;49.960;8.018;2023-04-05T13:44:12;21.70;47.50
6988;DHT22;3534;49.960;8.018;2023-04-05T13:46:40;21.60;47.20
6988;DHT22;3534;49.960;8.018;2023-04-05T13:49:07;21.70;48.00
6988;DHT22;3534;49.960;8.018;2023-04-05T13:51:34;21.80;48.10
6988;DHT22;3534;49.960;8.018;2023-04-05T13:54:05;22.10;48.10
6988;DHT22;3534;49.960;8.018;2023-04-05T13:56:32;22.40;45.80
6988;DHT22;3534;49.960;8.018;2023-04-05T13:58:59;22.70;45.70
6988;DHT22;3534;49.960;8.018;2023-04-05T14:01:26;22.90;45.20
6988;DHT22;3534;49.960;8.018;2023-04-05T14:03:54;23.10;43.90
6988;DHT22;3534;49.960;8.018;2023-04-05T14:06:20;23.00;43.10
6988;DHT22;3534;49.960;8.018;2023-04-05T14:08:47;22.90;47.20
6988;DHT22;3534;49.960;8.018;2023-04-05T14:11:19;23.10;56.20
6988;DHT22;3534;49.960;8.018;2023-04-05T14:13:46;23.40;51.00
6988;DHT22;3534;49.960;8.018;2023-04-05T14:16:12;23.70;43.70
6988;DHT22;3534;49.960;8.018;2023-04-05T14:18:39;23.60;43.10
6988;DHT22;3534;49.960;8.018;2023-04-05T14:21:07;23.80;43.90
6988;DHT22;3534;49.960;8.018;2023-04-05T14:23:34;24.10;42.50
6988;DHT22;3534;49.960;8.018;2023-04-05T14:26:01;24.20;43.70
6988;DHT22;3534;49.960;8.018;2023-04-05T14:28:27;24.40;41.00
6988;DHT22;3534;49.960;8.018;2023-04-05T14:30:54;24.40;40.50
6988;DHT22;3534;49.960;8.018;2023-04-05T14:33:23;24.40;40.30
6988;DHT22;3534;49.960;8.018;2023-04-05T14:35:51;24.60;40.40
6988;DHT22;3534;49.960;8.018;2023-04-05T14:38:19;24.70;39.80
6988;DHT22;3534;49.960;8.018;2023-04-05T14:40:45;24.70;39.50
6988;DHT22;3534;49.960;8.018;2023-04-05T14:43:12;24.70;44.40
6988;DHT22;3534;49.960;8.018;2023-04-05T14:45:39;24.40;39.70
6988;DHT22;3534;49.960;8.018;2023-04-05T14:48:05;24.30;39.40
6988;DHT22;3534;49.960;8.018;2023-04-05T14:50:32;24.40;39.50
6988;DHT22;3534;49.960;8.018;2023-04-05T14:52:59;24.40;39.20
6988;DHT22;3534;49.960;8.018;2023-04-05T14:55:27;24.50;38.60
6988;DHT22;3534;49.960;8.018;2023-04-05T14:57:54;24.50;39.00
6988;DHT22;3534;49.960;8.018;2023-04-05T15:00:21;24.50;38.70
6988;DHT22;3534;49.960;8.018;2023-04-05T15:02:48;24.60;38.00
6988;DHT22;3534;49.960;8.018;2023-04-05T15:05:14;24.50;39.60
6988;DHT22;3534;49.960;8.018;2023-04-05T15:07:41;24.20;38.50
6988;DHT22;3534;49.960;8.018;2023-04-05T15:10:08;24.10;38.60
6988;DHT22;3534;49.960;8.018;2023-04-05T15:12:36;23.60;38.50
6988;DHT22;3534;49.960;8.018;2023-04-05T15:15:04;23.80;39.10
6988;DHT22;3534;49.960;8.018;2023-04-05T15:17:31;23.90;38.80
6988;DHT22;3534;49.960;8.018;2023-04-05T15:19:58;24.10;38.30
6988;DHT22;3534;49.960;8.018;2023-04-05T15:22:24;24.30;38.70
6988;DHT22;3534;49.960;8.018;2023-04-05T15:24:51;24.40;38.20
6988;DHT22;3534;49.960;8.018;2023-04-05T15:27:18;24.60;38.00
6988;DHT22;3534;49.960;8.018;2023-04-05T15:29:46;24.40;37.40
6988;DHT22;3534;49.960;8.018;2023-04-05T15:32:13;24.20;37.50
6988;DHT22;3534;49.960;8.018;2023-04-05T15:34:40;24.00;38.60
6988;DHT22;3534;49.960;8.018;2023-04-05T15:37:06;24.00;38.10
6988;DHT22;3534;49.960;8.018;2023-04-05T15:39:34;24.10;37.70
6988;DHT22;3534;49.960;8.018;2023-04-05T15:42:01;24.00;38.00
6988;DHT22;3534;49.960;8.018;2023-04-05T15:44:28;24.00;37.50
6988;DHT22;3534;49.960;8.018;2023-04-05T15:46:56;23.70;37.70
6988;DHT22;3534;49.960;8.018;2023-04-05T15:49:23;23.60;37.70
6988;DHT22;3534;49.960;8.018;2023-04-05T15:51:49;23.40;37.60
6988;DHT22;3534;49.960;8.018;2023-04-05T15:54:16;23.30;38.10
6988;DHT22;3534;49.960;8.018;2023-04-05T15:56:45;23.40;38.00
6988;DHT22;3534;49.960;8.018;2023-04-05T15:59:12;23.50;37.70
6988;DHT22;3534;49.960;8.018;2023-04-05T16:01:39;23.40;36.80
6988;DHT22;3534;49.960;8.018;2023-04-05T16:04:07;23.30;37.70
6988;DHT22;3534;49.960;8.018;2023-04-05T16:06:34;23.20;37.60
6988;DHT22;3534;49.960;8.018;2023-04-05T16:09:01;23.30;37.30
6988;DHT22;3534;49.960;8.018;2023-04-05T16:11:27;23.30;37.30
6988;DHT22;3534;49.960;8.018;2023-04-05T16:13:54;23.50;37.50
6988;DHT22;3534;49.960;8.018;2023-04-05T16:16:21;23.60;39.10
6988;DHT22;3534;49.960;8.018;2023-04-05T16:18:48;23.70;38.40
6988;DHT22;3534;49.960;8.018;2023-04-05T16:21:16;23.80;37.20
6988;DHT22;3534;49.960;8.018;2023-04-05T16:23:43;23.80;37.10